Hinckley, MN

9:00 AM CST on December 07, 2019 (GMT -0600)
Hinckley

Weather History for K04W - October, 2019

Change the Weather History Date:

Tuesday, October 8, 2019

  Actual Average (KJMR) Record (KJMR)
Temperature  
Mean Temperature 55 °F -  
Max Temperature 69 °F 59 °F 82 °F (1966)
Min Temperature 41 °F 34 °F 17 °F (1986)
Degree Days  
Heating Degree Days 10    
Growing Degree Days 5 (Base 50)    
Moisture  
Dew Point 41 °F    
Average Humidity 61    
Maximum Humidity 93    
Minimum Humidity 37    
Precipitation  
Precipitation 0.00 in - - ()
Sea Level Pressure  
Sea Level Pressure 29.95 in    
Wind  
Wind Speed 7 mph (SSE)    
Max Wind Speed 25 mph    
Max Gust Speed 33 mph    
Visibility 10 miles    
Events      
Averages and records for this station are not official NWS values.
T = Trace of Precipitation, MM = Missing Value Source: NWS Daily Summary

Daily Weather History Graph

Daily Weather History Graph

Search for Another Location

Airport or City:

Astronomy

Oct. 08, 2019 Rise Set
Actual Time 7:18 AM CDT 6:38 PM CDT
Civil Twilight 6:48 AM CDT 7:08 PM CDT
Nautical Twilight 6:14 AM CDT 7:43 PM CDT
Astronomical Twilight 5:39 AM CDT 8:17 PM CDT
Moon 4:57 PM CDT (10/8) 1:47 AM CDT (10/8)
Length of Visible Light 12h 19m
Length of Day
11h 19m
Waxing Gibbous, 78% of the Moon is Illuminated
Oct 8
Waxing Gibbous
Oct 13
Full
Oct 21
Last Quarter
Oct 27
New
Nov 4
First Quarter

Hourly Weather History & Observations

Time (CDT) Temp. Windchill Dew Point Humidity Pressure Visibility Wind Dir Wind Speed Gust Speed Precip Events Conditions
12:18 AM 41.0 °F - 39.2 °F 93% 30.06 in 10.0 mi Calm Calm - N/A   Clear
12:36 AM 41.0 °F - 39.2 °F 93% 30.05 in 10.0 mi Calm Calm - N/A   Clear
12:56 AM 41.0 °F - 39.2 °F 93% 30.05 in 10.0 mi Calm Calm - N/A   Clear
1:15 AM 42.8 °F 41.1 °F 41.0 °F 93% 30.04 in 10.0 mi SE 3.5 mph - N/A   Clear
1:16 AM 42.8 °F 41.1 °F 41.0 °F 93% 30.04 in 10.0 mi SE 3.5 mph - N/A   Clear
1:35 AM 44.6 °F 43.1 °F 41.0 °F 87% 30.03 in 10.0 mi ESE 3.5 mph - N/A   Clear
1:40 AM 44.6 °F 43.1 °F 41.0 °F 87% 30.03 in 10.0 mi ESE 3.5 mph - N/A   Clear
1:58 AM 44.6 °F - 41.0 °F 87% 30.03 in 10.0 mi Calm Calm - N/A   Clear
2:15 AM 44.6 °F - 39.2 °F 81% 30.03 in 10.0 mi Calm Calm - N/A   Clear
2:35 AM 44.6 °F - 39.2 °F 81% 30.02 in 10.0 mi Calm Calm - N/A   Clear
2:36 AM 44.6 °F - 39.2 °F 81% 30.02 in 10.0 mi Calm Calm - N/A   Clear
2:55 AM 42.8 °F - 39.2 °F 87% 30.01 in 10.0 mi Calm Calm - N/A   Clear
2:56 AM 42.8 °F - 39.2 °F 87% 30.01 in 10.0 mi Calm Calm - N/A   Clear
3:18 AM 42.8 °F - 39.2 °F 87% 30.00 in 10.0 mi Calm Calm - N/A   Clear
3:37 AM 44.6 °F - 39.2 °F 81% 29.99 in 10.0 mi Calm Calm - N/A   Clear
3:56 AM 44.6 °F 43.1 °F 39.2 °F 81% 29.99 in 10.0 mi SE 3.5 mph - N/A   Clear
4:15 AM 46.4 °F 44.3 °F 39.2 °F 76% 29.99 in 10.0 mi SSE 4.6 mph - N/A   Clear
4:16 AM 46.4 °F 45.2 °F 39.2 °F 76% 29.99 in 10.0 mi SE 3.5 mph - N/A   Clear
4:35 AM 46.4 °F 44.3 °F 39.2 °F 76% 29.99 in 10.0 mi SSE 4.6 mph - N/A   Clear
4:58 AM 46.4 °F 45.2 °F 39.2 °F 76% 29.99 in 10.0 mi SSE 3.5 mph - N/A   Clear
5:15 AM 46.4 °F 43.5 °F 41.0 °F 81% 29.99 in 10.0 mi South 5.8 mph - N/A   Clear
5:35 AM 46.4 °F 42.9 °F 41.0 °F 81% 29.98 in 10.0 mi SSE 6.9 mph - N/A   Clear
5:55 AM 46.4 °F 43.5 °F 41.0 °F 81% 29.98 in 10.0 mi South 5.8 mph - N/A   Clear
5:56 AM 46.4 °F 43.5 °F 41.0 °F 81% 29.98 in 10.0 mi South 5.8 mph - N/A   Clear
6:19 AM 46.4 °F 43.5 °F 41.0 °F 81% 29.98 in 10.0 mi South 5.8 mph - N/A   Clear
6:36 AM 46.4 °F 42.9 °F 41.0 °F 81% 29.98 in 10.0 mi South 6.9 mph - N/A   Clear
6:55 AM 46.4 °F - 41.0 °F 81% 29.98 in 10.0 mi Calm Calm - N/A   Clear
6:56 AM 46.4 °F - 41.0 °F 81% 29.98 in 10.0 mi Calm Calm - N/A   Clear
7:15 AM 46.4 °F - 41.0 °F 81% 29.98 in 10.0 mi Calm Calm - N/A   Clear
7:16 AM 46.4 °F - 41.0 °F 81% 29.98 in 10.0 mi Calm Calm - N/A   Clear
7:35 AM 46.4 °F 41.9 °F 41.0 °F 81% 29.98 in 10.0 mi SSE 9.2 mph - N/A   Clear
7:40 AM 48.2 °F - 41.0 °F 76% 29.98 in 10.0 mi SSE 9.2 mph - N/A   Clear
7:58 AM 48.2 °F - 41.0 °F 76% 29.98 in 10.0 mi South 9.2 mph - N/A   Clear
8:15 AM 50.0 °F - 41.0 °F 71% 29.98 in 10.0 mi South 9.2 mph - N/A   Clear
8:35 AM 51.8 °F - 41.0 °F 67% 29.98 in 10.0 mi South 11.5 mph - N/A   Clear
8:36 AM 51.8 °F - 41.0 °F 67% 29.98 in 10.0 mi South 11.5 mph - N/A   Clear
8:55 AM 51.8 °F - 42.8 °F 71% 29.97 in 10.0 mi South 12.7 mph 18.4 mph N/A   Clear
8:56 AM 51.8 °F - 42.8 °F 71% 29.97 in 10.0 mi South 13.8 mph 18.4 mph N/A   Clear
9:19 AM 53.6 °F - 42.8 °F 67% 29.97 in 10.0 mi South 11.5 mph 18.4 mph N/A   Clear
9:37 AM 55.4 °F - 42.8 °F 63% 29.97 in 10.0 mi South 11.5 mph - N/A   Clear
9:56 AM 57.2 °F - 42.8 °F 59% 29.97 in 10.0 mi South 12.7 mph - N/A   Clear
10:15 AM 59.0 °F - 42.8 °F 55% 29.97 in 10.0 mi South 13.8 mph 19.6 mph N/A   Clear
10:16 AM 59.0 °F - 42.8 °F 55% 29.97 in 10.0 mi South 16.1 mph 19.6 mph N/A   Clear
10:35 AM 60.8 °F - 42.8 °F 52% 29.97 in 10.0 mi South 15.0 mph - N/A   Clear
10:40 AM 60.8 °F - 42.8 °F 52% 29.97 in 10.0 mi South 11.5 mph 19.6 mph N/A   Clear
10:57 AM 62.6 °F - 42.8 °F 48% 29.97 in 10.0 mi South 15.0 mph 24.2 mph N/A   Clear
11:15 AM 64.4 °F - 42.8 °F 45% 29.96 in 10.0 mi South 13.8 mph 24.2 mph N/A   Clear
11:35 AM 64.4 °F - 42.8 °F 45% 29.96 in 10.0 mi SSW 18.4 mph 25.3 mph N/A   Clear
11:36 AM 64.4 °F - 42.8 °F 45% 29.96 in 10.0 mi SSW 19.6 mph 25.3 mph N/A   Clear
11:55 AM 64.4 °F - 42.8 °F 45% 29.96 in 10.0 mi SSW 18.4 mph 26.5 mph N/A   Clear
11:56 AM 64.4 °F - 42.8 °F 45% 29.95 in 10.0 mi South 17.3 mph 26.5 mph N/A   Clear
12:18 PM 66.2 °F - 42.8 °F 43% 29.95 in 10.0 mi South 24.2 mph 28.8 mph N/A   Clear
12:37 PM 68.0 °F - 44.6 °F 43% 29.94 in 10.0 mi South 18.4 mph 27.6 mph N/A   Clear
12:56 PM 66.2 °F - 42.8 °F 43% 29.94 in 10.0 mi South 24.2 mph 32.2 mph N/A   Clear
1:15 PM 68.0 °F - 42.8 °F 40% 29.93 in 10.0 mi South 23.0 mph 31.1 mph N/A   Clear
1:16 PM 68.0 °F - 42.8 °F 40% 29.93 in 10.0 mi South 21.9 mph 31.1 mph N/A   Clear
1:35 PM 68.0 °F - 42.8 °F 40% 29.92 in 10.0 mi South 20.7 mph 27.6 mph N/A   Clear
1:40 PM 68.0 °F - 42.8 °F 40% 29.92 in 10.0 mi South 17.3 mph 27.6 mph N/A   Clear
1:57 PM 68.0 °F - 42.8 °F 40% 29.91 in 10.0 mi South 25.3 mph 32.2 mph N/A   Clear
2:15 PM 69.8 °F - 42.8 °F 38% 29.91 in 10.0 mi South 23.0 mph 33.4 mph N/A   Clear
2:35 PM 68.0 °F - 42.8 °F 40% 29.91 in 10.0 mi South 20.7 mph 27.6 mph N/A   Clear
2:55 PM 66.2 °F - 42.8 °F 43% 29.90 in 10.0 mi South 13.8 mph 25.3 mph N/A   Clear
2:56 PM 66.2 °F - 42.8 °F 43% 29.90 in 10.0 mi South 13.8 mph 25.3 mph N/A   Clear
3:18 PM 68.0 °F - 42.8 °F 40% 29.90 in 10.0 mi South 17.3 mph 25.3 mph N/A   Clear
3:36 PM 68.0 °F - 42.8 °F 40% 29.89 in 10.0 mi South 15.0 mph 24.2 mph N/A   Clear
3:56 PM 68.0 °F - 42.8 °F 40% 29.89 in 10.0 mi SSE 15.0 mph 23.0 mph N/A   Clear
4:15 PM 66.2 °F - 41.0 °F 40% 29.88 in 10.0 mi SSE 12.7 mph 21.9 mph N/A   Clear
4:16 PM 66.2 °F - 41.0 °F 40% 29.88 in 10.0 mi SSE 15.0 mph 23.0 mph N/A   Clear
4:35 PM 68.0 °F - 41.0 °F 37% 29.88 in 10.0 mi SSE 17.3 mph 23.0 mph N/A   Clear
4:40 PM 68.0 °F - 41.0 °F 37% 29.88 in 10.0 mi South 17.3 mph 23.0 mph N/A   Clear
4:58 PM 68.0 °F - 41.0 °F 37% 29.88 in 10.0 mi SSE 13.8 mph 26.5 mph N/A   Clear
5:15 PM 66.2 °F - 41.0 °F 40% 29.87 in 10.0 mi SSE 17.3 mph 23.0 mph N/A   Clear
5:35 PM 66.2 °F - 41.0 °F 40% 29.86 in 10.0 mi SSE 13.8 mph 21.9 mph N/A   Clear
5:36 PM 66.2 °F - 41.0 °F 40% 29.86 in 10.0 mi SSE 13.8 mph 21.9 mph N/A   Clear
5:55 PM 64.4 °F - 41.0 °F 42% 29.87 in 10.0 mi SSE 12.7 mph 21.9 mph N/A   Clear
5:56 PM 64.4 °F - 41.0 °F 42% 29.87 in 10.0 mi SSE 12.7 mph 21.9 mph N/A   Clear
6:18 PM 64.4 °F - 41.0 °F 42% 29.88 in 10.0 mi South 12.7 mph 20.7 mph N/A   Clear
6:37 PM 62.6 °F - 41.0 °F 45% 29.88 in 10.0 mi SSE 10.4 mph 17.3 mph N/A   Clear
6:56 PM 62.6 °F - 41.0 °F 45% 29.88 in 10.0 mi SSE 6.9 mph - N/A   Clear
7:15 PM 62.6 °F - 41.0 °F 45% 29.88 in 10.0 mi SSE 9.2 mph - N/A   Clear
7:35 PM 60.8 °F - 41.0 °F 48% 29.89 in 10.0 mi SSE 8.1 mph - N/A   Clear
7:39 PM 60.8 °F - 41.0 °F 48% 29.89 in 10.0 mi SSE 8.1 mph - N/A   Clear
7:58 PM 60.8 °F - 41.0 °F 48% 29.89 in 10.0 mi SSE 8.1 mph - N/A   Clear
8:15 PM 60.8 °F - 41.0 °F 48% 29.90 in 10.0 mi SSE 6.9 mph - N/A   Clear
8:35 PM 59.0 °F - 41.0 °F 51% 29.90 in 10.0 mi SSE 8.1 mph - N/A   Clear
8:56 PM 59.0 °F - 41.0 °F 51% 29.90 in 10.0 mi SSE 4.6 mph - N/A   Clear
9:19 PM 57.2 °F - 41.0 °F 55% 29.91 in 10.0 mi SSE 9.2 mph - N/A   Clear
9:37 PM 57.2 °F - 41.0 °F 55% 29.91 in 10.0 mi SSE 6.9 mph - N/A   Clear
9:55 PM 57.2 °F - 41.0 °F 55% 29.91 in 10.0 mi SSE 5.8 mph - N/A   Clear
10:15 PM 55.4 °F - 42.8 °F 63% 29.92 in 10.0 mi SSE 8.1 mph - N/A   Clear
10:16 PM 55.4 °F - 42.8 °F 63% 29.92 in 10.0 mi SSE 8.1 mph - N/A   Clear
10:35 PM 55.4 °F - 42.8 °F 63% 29.92 in 10.0 mi SSE 6.9 mph - N/A   Clear
10:39 PM 55.4 °F - 42.8 °F 63% 29.92 in 10.0 mi SSE 6.9 mph - N/A   Clear
10:57 PM 55.4 °F - 42.8 °F 63% 29.93 in 10.0 mi SSE 6.9 mph - N/A   Clear
11:15 PM 55.4 °F - 42.8 °F 63% 29.93 in 10.0 mi SSE 5.8 mph - N/A   Clear
11:35 PM 55.4 °F - 42.8 °F 63% 29.93 in 10.0 mi SSE 6.9 mph - N/A   Clear
11:36 PM 55.4 °F - 42.8 °F 63% 29.93 in 10.0 mi SSE 6.9 mph - N/A   Clear
11:55 PM 55.4 °F - 42.8 °F 63% 29.93 in 10.0 mi SSE 6.9 mph - N/A   Clear